Time;durP1;ratioP1;P1;durP2;ratioP2;P2;SDS_P1;SDS_P2;PMS_P1;PMS_P2;Temp;Humidity;BMP_temperature;BMP_pressure;BME280_temperature;BME280_humidity;BME280_pressure;Samples;Min_cycle;Max_cycle;Signal;HPM_P1;HPM_P2
2023/07/10 00:00:26;;;;;;;8.27;7.25;;;25.00;99.90;;;-141.84;56.91;22273.78;4880851;29;20668;-64
2023/07/10 00:02:54;;;;;;;11.07;8.30;;;24.40;99.90;;;-141.84;59.98;22159.88;4905356;28;20298;-64
2023/07/10 00:05:24;;;;;;;13.70;8.77;;;23.80;99.90;;;-141.84;61.07;22094.81;4894412;29;20242;-65
2023/07/10 00:07:52;;;;;;;13.57;8.90;;;;;;;-141.84;62.03;21993.13;4918189;28;20284;-65
2023/07/10 00:10:30;;;;;;;10.90;9.45;;;;;;;-141.84;63.11;21991.09;4923710;28;20328;-63
2023/07/10 00:12:58;;;;;;;14.15;9.00;;;23.30;99.90;;;-141.84;67.01;21789.78;4922039;29;20272;-66
2023/07/10 00:15:28;;;;;;;9.90;8.88;;;22.10;99.90;;;-141.84;67.67;21816.22;4906869;28;20654;-64
2023/07/10 00:17:56;;;;;;;10.75;9.02;;;21.90;99.90;;;-141.84;68.99;21753.19;4907377;28;20292;-64
2023/07/10 00:20:26;;;;;;;10.60;9.60;;;21.60;99.90;;;-141.84;69.05;21730.81;4899983;29;20230;-65
2023/07/10 00:22:55;;;;;;;13.90;9.60;;;21.40;99.90;;;-141.84;69.17;21736.94;4907395;29;20608;-65
2023/07/10 00:25:24;;;;;;;11.65;9.52;;;21.30;99.90;;;-141.84;70.16;21696.25;4907163;29;20741;-65
2023/07/10 00:27:53;;;;;;;10.88;9.35;;;21.20;99.90;;;-141.84;70.73;21653.56;4907310;29;20724;-65
2023/07/10 00:30:26;;;;;;;12.00;9.23;;;;;;;-141.84;69.48;21669.81;4903116;29;20253;-65
2023/07/10 00:32:56;;;;;;;9.73;8.82;;;;;;;-141.84;68.85;21643.38;4907569;29;20205;-65
2023/07/10 00:35:27;;;;;;;10.60;8.70;;;;;;;-141.84;67.66;21730.81;4893999;29;20242;-64
2023/07/10 00:38:01;;;;;;;9.85;8.85;;;;;;;-141.84;67.56;21724.72;4919488;28;20260;-64
2023/07/10 00:40:34;;;;;;;10.20;7.95;;;;;;;-141.84;65.38;21810.13;4914053;28;20225;-65
2023/07/10 00:43:06;;;;;;;9.52;8.52;;;;;;;-141.84;64.13;21846.72;4898743;29;20272;-64
2023/07/10 00:45:34;;;;;;;9.30;8.40;;;;;;;-141.84;63.75;21854.88;4906536;29;20798;-65
2023/07/10 00:48:11;;;;;;;9.40;8.45;;;;;;;-141.84;63.51;21893.50;4906083;28;20214;-66
2023/07/10 00:50:45;;;;;;;10.02;8.23;;;;;;;-141.84;62.66;21907.72;4880616;29;21411;-64
2023/07/10 00:53:21;;;;;;;10.35;8.27;;;;;;;-141.84;62.69;21897.56;4888365;29;20645;-65
2023/07/10 00:55:54;;;;;;;8.82;8.13;;;;;;;-141.84;61.70;21958.56;4887824;29;20237;-65
2023/07/10 00:58:25;;;;;;;9.88;8.45;;;;;;;-141.84;61.27;21964.66;4881350;29;20790;-65
2023/07/10 01:01:03;;;;;;;9.60;8.65;;;;;;;-141.84;60.99;21944.34;4888329;29;20226;-66
2023/07/10 01:03:32;;;;;;;10.60;8.40;;;;;;;-141.84;62.35;21915.88;4906494;28;20233;-65
2023/07/10 01:06:04;;;;;;;9.00;8.20;;;;;;;-141.84;61.76;21926.03;4891122;29;20690;-64
2023/07/10 01:08:34;;;;;;;9.20;8.40;;;;;;;-141.84;61.55;21919.94;4883687;29;20329;-65
2023/07/10 01:11:04;;;;;;;9.65;8.65;;;;;;;-141.84;61.61;21901.63;4898590;28;20229;-65
2023/07/10 01:13:33;;;;;;;9.60;8.73;;;;;;;-141.84;60.69;21968.72;4910956;28;20318;-65
2023/07/10 01:16:02;;;;;;;9.70;8.70;;;;;;;-141.84;60.28;21926.03;4893034;29;20810;-65
2023/07/10 01:18:31;;;;;;;10.32;8.65;;;;;;;-141.84;59.94;21952.47;4886197;29;20231;-65
2023/07/10 01:21:14;;;;;;;9.30;8.27;;;;;;;-141.84;59.99;21964.66;4891513;29;20302;-64
2023/07/10 01:23:42;;;;;;;9.30;8.45;;;;;;;-141.84;59.52;21930.09;4892001;29;20226;-64
2023/07/10 01:26:11;;;;;;;8.98;8.18;;;;;;;-141.84;59.45;21952.47;4891504;29;20265;-65
2023/07/10 01:28:40;;;;;;;12.48;9.20;;;;;;;-141.84;59.62;21940.25;4883992;29;20242;-65
2023/07/10 01:31:12;;;;;;;11.27;8.88;;;21.10;99.90;;;-141.84;60.00;21926.03;4891145;29;20325;-66
2023/07/10 01:33:46;;;;;;;9.73;8.82;;;21.90;99.90;;;-141.84;60.17;21891.47;4891771;29;20697;-65
2023/07/10 01:36:23;;;;;;;12.00;8.82;;;21.80;99.90;;;-141.84;60.23;21899.59;4891061;29;20242;-65
2023/07/10 01:39:02;;;;;;;9.52;8.73;;;21.80;99.90;;;-141.84;60.26;21879.25;4892041;29;20301;-64
2023/07/10 01:41:36;;;;;;;10.05;8.68;;;21.80;99.90;;;-141.84;59.92;21921.97;4910185;29;20238;-64
2023/07/10 01:44:24;;;;;;;10.25;8.43;;;21.80;99.90;;;-141.84;60.73;21860.97;4892987;29;20234;-65
2023/07/10 01:46:54;;;;;;;9.35;8.45;;;21.70;99.90;;;-141.84;60.10;21877.22;4891476;29;20342;-64
2023/07/10 01:49:28;;;;;;;9.15;8.30;;;21.70;99.90;;;-141.84;60.69;21856.91;4891179;29;20239;-64
2023/07/10 01:52:01;;;;;;;12.57;9.10;;;21.70;99.90;;;-141.84;60.79;21830.47;4890858;29;20573;-65
2023/07/10 01:54:31;;;;;;;9.25;8.45;;;21.60;99.90;;;-141.84;60.85;21863.00;4883780;29;20661;-65
2023/07/10 01:56:59;;;;;;;9.27;8.40;;;21.60;99.90;;;-141.84;60.20;21875.19;4890905;29;20790;-65
2023/07/10 01:59:28;;;;;;;9.27;8.23;;;21.60;99.90;;;-141.84;59.08;21926.03;4890963;29;20211;-65
2023/07/10 02:01:58;;;;;;;8.80;7.97;;;21.70;99.90;;;-141.84;57.92;21958.56;4898616;29;20313;-65
2023/07/10 02:04:27;;;;;;;9.10;8.32;;;21.70;99.90;;;-141.84;58.04;21976.88;4897120;28;20234;-64
2023/07/10 02:06:57;;;;;;;8.68;7.88;;;21.80;99.90;;;-141.84;57.89;21928.06;4890693;29;20254;-65
2023/07/10 02:09:28;;;;;;;8.13;7.43;;;21.90;99.90;;;-141.84;57.76;21954.50;4891011;29;20226;-65
2023/07/10 02:11:57;;;;;;;8.88;8.02;;;21.90;99.90;;;-141.84;57.91;21972.81;4904824;28;20699;-65
2023/07/10 02:14:26;;;;;;;9.02;8.15;;;22.00;99.90;;;-141.84;57.69;21964.66;4897186;28;20258;-65
2023/07/10 02:16:54;;;;;;;8.55;7.75;;;22.00;99.90;;;-141.84;57.69;21950.44;4889290;29;20245;-64
2023/07/10 02:19:22;;;;;;;9.75;7.72;;;22.00;99.90;;;-141.84;57.79;21950.44;4880264;29;20495;-65
2023/07/10 02:21:51;;;;;;;8.75;7.97;;;22.00;99.90;;;-141.84;58.11;21928.06;4890682;29;20238;-65
2023/07/10 02:24:20;;;;;;;8.50;7.70;;;21.90;99.90;;;-141.84;59.33;21885.38;4889399;29;20236;-64
2023/07/10 02:26:49;;;;;;;9.23;8.23;;;21.90;99.90;;;-141.84;59.50;21915.88;4890706;29;20691;-65
2023/07/10 02:29:17;;;;;;;8.95;8.15;;;21.80;99.90;;;-141.84;58.99;21915.88;4890110;29;20790;-64
2023/07/10 02:31:45;;;;;;;8.45;7.75;;;21.80;99.90;;;-141.84;58.56;21956.53;4890484;29;20249;-64
2023/07/10 02:34:13;;;;;;;9.80;8.80;;;21.90;99.90;;;-141.84;58.04;22074.47;4887935;29;20231;-64
2023/07/10 02:36:41;;;;;;;9.40;8.50;;;22.00;99.90;;;-141.84;58.89;21976.88;4879184;29;20246;-64
2023/07/10 02:39:09;;;;;;;9.32;8.48;;;22.00;99.90;;;-141.84;59.64;21911.78;4889878;29;20326;-64
2023/07/10 02:41:39;;;;;;;9.38;8.43;;;21.90;99.90;;;-141.84;59.43;21917.91;4890261;29;20722;-65
2023/07/10 02:44:07;;;;;;;8.82;8.02;;;21.90;99.90;;;-141.84;60.29;21842.66;4890391;29;20230;-64
2023/07/10 02:46:35;;;;;;;9.10;8.23;;;21.80;99.90;;;-141.84;60.54;21873.16;4882046;29;20556;-64
2023/07/10 02:49:04;;;;;;;9.88;8.50;;;21.80;99.90;;;-141.84;60.37;21846.72;4890018;29;20606;-64
2023/07/10 02:51:32;;;;;;;8.82;8.13;;;21.70;99.90;;;-141.84;60.38;21867.06;4890380;29;20313;-64
2023/07/10 02:54:09;;;;;;;8.93;8.13;;;21.70;99.90;;;-141.84;60.54;21889.44;4889900;29;20309;-65
2023/07/10 02:56:38;;;;;;;8.38;7.60;;;21.60;99.90;;;-141.84;60.76;21846.72;4882219;29;20518;-65
2023/07/10 02:59:07;;;;;;;9.18;8.32;;;21.60;99.90;;;-141.84;61.13;21824.34;4889567;29;20321;-64
2023/07/10 03:01:35;;;;;;;8.98;8.23;;;21.60;99.90;;;-141.84;60.37;21856.91;4895061;29;20604;-65
2023/07/10 03:04:03;;;;;;;9.77;8.88;;;21.60;99.90;;;-141.84;60.28;21877.22;4906206;28;20233;-65
2023/07/10 03:06:32;;;;;;;9.40;8.55;;;21.70;99.90;;;-141.84;60.40;21863.00;4882064;29;20298;-65
2023/07/10 03:09:00;;;;;;;9.38;8.57;;;21.60;99.90;;;-141.84;60.23;21793.84;4890183;29;20214;-64
2023/07/10 03:11:28;;;;;;;9.23;8.43;;;21.50;99.90;;;-141.84;60.21;21836.56;4900394;28;20474;-64
2023/07/10 03:14:01;;;;;;;8.70;7.95;;;21.50;99.90;;;-141.84;60.44;21822.31;4907003;28;20315;-64
2023/07/10 03:16:29;;;;;;;8.88;8.00;;;21.50;99.90;;;-141.84;60.63;21826.41;4881127;29;20275;-64
2023/07/10 03:18:58;;;;;;;9.32;8.23;;;21.40;99.90;;;-141.84;60.68;21802.00;4889146;28;20231;-65
2023/07/10 03:21:26;;;;;;;8.90;8.07;;;21.40;99.90;;;-141.84;60.53;21838.59;4889047;28;20706;-65
2023/07/10 03:23:54;;;;;;;8.40;7.63;;;21.40;99.90;;;-141.84;60.50;21867.06;4889715;28;20210;-65
2023/07/10 03:26:22;;;;;;;8.65;7.82;;;21.50;99.90;;;-141.84;61.03;21814.19;4882840;29;20313;-66
2023/07/10 03:29:06;;;;;;;8.93;8.07;;;21.40;99.90;;;-141.84;60.20;21850.78;4889386;28;20714;-65
2023/07/10 03:31:35;;;;;;;9.15;7.90;;;21.50;99.90;;;-141.84;60.52;21840.63;4889114;29;20286;-65
2023/07/10 03:34:04;;;;;;;8.27;7.57;;;21.50;99.90;;;-141.84;60.40;21858.94;4889028;29;20289;-64
2023/07/10 03:36:32;;;;;;;8.43;7.72;;;21.50;99.90;;;-141.84;59.62;21846.72;4881752;29;20231;-64
2023/07/10 03:39:01;;;;;;;8.23;7.45;;;21.60;99.90;;;-141.84;59.48;21875.19;4888859;29;20238;-64
2023/07/10 03:41:29;;;;;;;8.88;7.75;;;21.60;99.90;;;-141.84;58.84;21869.09;4889416;29;20214;-64
2023/07/10 03:43:57;;;;;;;9.15;8.25;;;21.70;99.90;;;-141.84;58.04;21907.72;4889172;29;20325;-65
2023/07/10 03:46:27;;;;;;;8.15;7.35;;;21.80;99.90;;;-141.84;57.83;21926.03;4881139;29;20266;-65
2023/07/10 03:48:55;;;;;;;8.90;7.43;;;21.80;99.90;;;-141.84;57.57;21962.63;4888733;29;20321;-65
2023/07/10 03:51:23;;;;;;;7.97;7.28;;;22.00;99.90;;;-141.84;57.13;22013.47;4888828;29;20271;-65
2023/07/10 03:53:52;;;;;;;8.30;7.60;;;22.10;99.90;;;-141.84;57.11;21999.25;4889135;29;20614;-65
2023/07/10 03:56:20;;;;;;;8.52;7.72;;;22.10;99.90;;;-141.84;56.06;22084.66;4887225;29;20258;-65
2023/07/10 03:58:49;;;;;;;8.13;7.30;;;22.20;99.90;;;-141.84;56.40;22086.69;4885397;29;20326;-65
2023/07/10 04:01:18;;;;;;;8.10;6.95;;;22.30;99.90;;;-141.84;56.13;22096.84;4891966;29;20671;-64
2023/07/10 04:03:47;;;;;;;8.70;7.60;;;22.40;99.90;;;-141.84;55.72;22135.47;4907445;28;20718;-65
2023/07/10 04:06:17;;;;;;;8.25;7.47;;;22.50;99.90;;;-141.84;55.04;22163.94;4907704;28;20305;-64
2023/07/10 04:08:48;;;;;;;8.55;7.60;;;22.60;99.90;;;-141.84;55.75;22131.41;4902982;28;20214;-65
2023/07/10 04:11:19;;;;;;;11.25;8.10;;;22.60;99.90;;;-141.84;57.16;22163.94;4898491;28;20641;-64
2023/07/10 04:13:48;;;;;;;9.10;7.78;;;22.70;99.90;;;-141.84;59.22;22070.41;4893946;29;20313;-65
2023/07/10 04:16:19;;;;;;;9.20;8.20;;;22.60;99.90;;;-141.84;60.59;22037.88;4869949;29;20259;-64
2023/07/10 04:18:52;;;;;;;8.85;8.05;;;22.50;99.90;;;-141.84;62.59;21907.72;4866959;29;20239;-65
2023/07/10 04:21:24;;;;;;;9.40;8.48;;;22.20;99.90;;;-141.84;64.97;21891.47;4870125;29;20237;-65
2023/07/10 04:23:53;;;;;;;8.75;8.05;;;22.00;99.90;;;-141.84;66.22;21826.41;4869999;29;20634;-65
2023/07/10 04:26:24;;;;;;;10.38;8.63;;;21.80;99.90;;;-141.84;66.46;21818.25;4867381;29;20314;-65
2023/07/10 04:28:56;;;;;;;8.38;7.65;;;21.70;99.90;;;-141.84;64.91;21895.53;4887857;29;20313;-65
2023/07/10 04:31:25;;;;;;;9.20;8.27;;;21.70;99.90;;;-141.84;65.53;21871.13;4888088;29;20330;-66
2023/07/10 04:33:57;;;;;;;8.63;7.65;;;21.70;99.90;;;-141.84;65.79;21834.53;4887988;29;20778;-65
2023/07/10 04:36:27;;;;;;;8.45;7.55;;;21.60;99.90;;;-141.84;64.09;21897.56;4880617;29;20666;-64
2023/07/10 04:38:55;;;;;;;8.52;7.60;;;21.70;99.90;;;-141.84;64.15;21891.47;4888221;29;20637;-65
2023/07/10 04:41:26;;;;;;;8.38;7.68;;;21.80;99.90;;;-141.84;63.78;21974.84;4887884;29;20775;-65
2023/07/10 04:43:54;;;;;;;8.13;7.32;;;21.80;99.90;;;-141.84;63.04;21962.63;4887961;29;20735;-64
2023/07/10 04:46:22;;;;;;;8.48;7.78;;;21.90;99.90;;;-141.84;62.16;21930.09;4880533;29;20326;-65
2023/07/10 04:48:51;;;;;;;8.55;7.80;;;22.00;99.90;;;-141.84;61.59;21921.97;4888442;29;20238;-65
2023/07/10 04:51:21;;;;;;;8.00;7.20;;;22.00;99.90;;;-141.84;58.94;22086.69;4888227;29;20258;-64
2023/07/10 04:53:50;;;;;;;8.93;7.60;;;22.20;99.90;;;-141.84;58.39;22078.53;4888410;29;20673;-65
2023/07/10 04:56:20;;;;;;;10.23;7.60;;;22.40;99.90;;;-141.84;60.23;22046.00;4887565;29;20258;-65
2023/07/10 04:58:52;;;;;;;8.32;7.50;;;22.40;99.90;;;-141.84;60.11;22048.03;4884527;29;20349;-64
2023/07/10 05:01:25;;;;;;;8.40;7.70;;;22.40;99.90;;;-141.84;60.80;21980.94;4891246;29;20248;-65
2023/07/10 05:03:53;;;;;;;10.75;7.75;;;22.20;99.90;;;-141.84;65.56;21913.84;4905710;28;20332;-65
2023/07/10 05:06:23;;;;;;;10.25;8.02;;;22.10;99.90;;;-141.84;69.44;21753.19;4883430;29;20651;-64
2023/07/10 05:08:55;;;;;;;8.63;7.93;;;21.80;99.90;;;-141.84;72.59;21627.13;4887669;29;20758;-64
2023/07/10 05:11:27;;;;;;;9.48;8.57;;;21.40;99.90;;;-141.84;74.03;21619.00;4897655;29;20718;-65
2023/07/10 05:13:55;;;;;;;9.20;8.27;;;21.10;99.90;;;-141.84;71.85;21669.81;4905650;28;20256;-66
2023/07/10 05:16:25;;;;;;;9.40;8.60;;;21.00;99.90;;;-141.84;74.22;21637.28;4879700;29;20274;-65
2023/07/10 05:18:53;;;;;;;9.63;8.68;;;20.90;99.90;;;-141.84;73.68;21594.59;4888430;29;20597;-67
2023/07/10 05:21:23;;;;;;;9.15;8.25;;;20.80;99.90;;;-141.84;71.50;21716.59;4887438;29;20278;-67
2023/07/10 05:23:51;;;;;;;9.00;8.10;;;21.00;99.90;;;-141.84;71.29;21749.13;4888152;29;20253;-65
2023/07/10 05:26:20;;;;;;;9.77;8.20;;;21.10;99.90;;;-141.84;71.21;21781.66;4887061;29;20322;-64
2023/07/10 05:28:48;;;;;;;9.48;8.48;;;21.20;99.90;;;-141.84;70.18;21842.66;4885401;29;20266;-66
2023/07/10 05:31:17;;;;;;;9.68;8.70;;;21.40;99.90;;;-141.84;70.01;21840.63;4887628;29;20246;-66
2023/07/10 05:33:49;;;;;;;9.20;8.20;;;21.50;99.90;;;-141.84;68.36;21944.34;4887362;29;20384;-65
2023/07/10 05:36:19;;;;;;;9.43;8.32;;;21.70;99.90;;;-141.84;66.22;22046.00;4868751;29;20337;-64
2023/07/10 05:38:49;;;;;;;10.07;8.95;;;21.90;99.90;;;-141.84;64.71;22088.72;4868301;29;20298;-65
2023/07/10 05:41:18;;;;;;;9.63;8.00;;;22.20;99.90;;;-141.84;63.24;22090.75;4879210;29;20749;-66
2023/07/10 05:43:47;;;;;;;8.48;7.65;;;22.40;99.90;;;-141.84;61.63;22147.69;4887629;29;20269;-65
2023/07/10 05:46:17;;;;;;;8.50;7.60;;;22.50;99.90;;;-141.84;60.96;22141.59;4887632;29;20699;-67
2023/07/10 05:48:46;;;;;;;8.15;7.45;;;22.70;99.90;;;-141.84;62.64;22163.94;4882157;29;20230;-64
2023/07/10 05:51:14;;;;;;;9.25;8.20;;;22.80;99.90;;;-141.84;63.80;22182.25;4888837;29;20215;-65
2023/07/10 05:53:42;;;;;;;8.43;7.63;;;22.80;99.90;;;-141.84;61.62;22241.22;4891767;29;20309;-66
2023/07/10 05:56:12;;;;;;;8.05;7.25;;;23.00;99.90;;;-141.84;60.96;22269.69;4890419;29;20266;-65
2023/07/10 05:58:41;;;;;;;8.60;7.80;;;23.20;99.90;;;-141.84;58.68;22416.13;4883651;29;20927;-65
2023/07/10 06:01:12;;;;;;;8.38;7.57;;;23.40;99.90;;;-141.84;58.63;22342.91;4892884;29;20272;-65
2023/07/10 06:03:40;;;;;;;8.57;7.75;;;23.40;99.90;;;-141.84;60.64;22318.50;4906815;28;20231;-65
2023/07/10 06:06:09;;;;;;;8.13;7.10;;;23.40;99.90;;;-141.84;59.72;22306.31;4890603;29;20672;-65
2023/07/10 06:08:38;;;;;;;8.75;7.85;;;23.40;99.90;;;-141.84;60.54;22363.25;4883917;29;20249;-66
2023/07/10 06:11:10;;;;;;;8.38;7.57;;;23.50;99.90;;;-141.84;62.77;22302.25;4898315;28;20698;-65
2023/07/10 06:13:40;;;;;;;7.90;7.20;;;23.50;99.90;;;-141.84;62.37;22273.78;4909053;28;20289;-66
2023/07/10 06:16:11;;;;;;;9.85;7.65;;;23.50;99.90;;;-141.84;59.71;22312.41;4890743;29;20322;-66
2023/07/10 06:18:39;;;;;;;9.75;7.53;;;23.50;99.90;;;-141.84;59.31;22355.13;4882996;29;20238;-66
2023/07/10 06:21:10;;;;;;;7.70;7.00;;;23.60;99.90;;;-141.84;58.65;22349.00;4890213;29;20217;-65
2023/07/10 06:23:38;;;;;;;7.82;7.03;;;23.70;99.90;;;-141.84;58.58;22426.28;4891193;29;20294;-65
2023/07/10 06:26:06;;;;;;;8.48;7.65;;;23.90;99.90;;;-141.84;57.17;22530.00;4889901;29;20234;-66
2023/07/10 06:28:36;;;;;;;9.15;8.13;;;24.20;99.90;;;-141.84;56.80;22643.91;4883124;29;20309;-66
2023/07/10 06:31:09;;;;;;;9.85;8.73;;;24.50;99.90;;;-141.84;57.17;22664.25;4890239;29;20234;-67
2023/07/10 06:33:39;;;;;;;8.48;7.68;;;24.60;99.90;;;-141.84;57.65;22641.88;4890104;29;20770;-66
2023/07/10 06:36:09;;;;;;;11.40;8.70;;;24.80;99.90;;;-141.84;57.81;22676.44;4891439;28;20274;-65
2023/07/10 06:38:37;;;;;;;8.65;7.78;;;24.90;99.90;;;-141.84;57.22;22729.34;4901607;28;20210;-65
2023/07/10 06:41:07;;;;;;;11.63;8.20;;;25.00;99.90;;;-141.84;55.55;22814.75;4892802;29;20231;-66
2023/07/10 06:43:35;;;;;;;9.20;7.88;;;25.20;99.90;;;-141.84;55.28;22841.19;4890262;29;20238;-66
2023/07/10 06:46:05;;;;;;;9.48;8.57;;;25.30;99.90;;;-141.84;54.17;22963.22;4890096;29;20281;-66
2023/07/10 06:48:34;;;;;;;9.82;8.02;;;25.50;99.90;;;-141.84;54.63;22940.84;4882072;29;20237;-65
2023/07/10 06:51:02;;;;;;;8.65;7.85;;;25.60;99.90;;;-141.84;54.63;22924.59;4889744;29;20630;-66
2023/07/10 06:53:30;;;;;;;9.15;8.10;;;25.70;99.90;;;-141.84;55.01;22863.56;4890039;29;20691;-66
2023/07/10 06:56:01;;;;;;;9.45;7.68;;;25.60;99.90;;;-141.84;56.34;22770.00;4889458;29;20330;-66
2023/07/10 06:58:33;;;;;;;9.35;7.00;;;25.40;99.90;;;-141.84;55.93;22790.34;4882489;29;20230;-65
2023/07/10 07:01:03;;;;;;;8.52;7.70;;;25.40;99.90;;;-141.84;55.97;22843.22;4890961;29;20265;-65
2023/07/10 07:03:33;;;;;;;7.80;6.97;;;25.40;99.90;;;-141.84;54.31;22912.38;4895635;29;20317;-66
2023/07/10 07:06:05;;;;;;;7.53;6.78;;;25.60;99.90;;;-141.84;53.35;22959.16;4889573;29;20229;-65
2023/07/10 07:08:35;;;;;;;8.02;7.30;;;25.80;99.90;;;-141.84;52.67;23014.09;4882864;29;20218;-65
2023/07/10 07:11:03;;;;;;;7.85;7.13;;;25.90;99.90;;;-141.84;51.57;23014.09;4896809;29;20324;-65
2023/07/10 07:13:31;;;;;;;8.52;7.75;;;26.00;99.90;;;-141.84;50.90;23071.03;4899791;29;20313;-64
2023/07/10 07:15:59;;;;;;;9.82;7.70;;;26.10;99.90;;;-141.84;51.83;23050.69;4897421;29;20241;-64
2023/07/10 07:18:28;;;;;;;8.43;7.63;;;26.20;99.90;;;-141.84;51.34;23050.69;4897394;29;20596;-66
2023/07/10 07:20:58;;;;;;;8.35;7.40;;;26.30;99.90;;;-141.84;48.45;23142.22;4889985;29;20269;-65
2023/07/10 07:23:28;;;;;;;8.20;7.20;;;26.30;99.90;;;-141.84;48.67;23170.72;4908125;29;20328;-65
2023/07/10 07:25:57;;;;;;;8.07;7.38;;;26.40;99.90;;;-141.84;49.91;23209.34;4907922;28;21132;-65
2023/07/10 07:28:25;;;;;;;9.18;7.63;;;26.60;99.90;;;-141.84;49.43;23254.09;4900027;29;20721;-64
2023/07/10 07:31:01;;;;;;;9.75;7.82;;;26.70;99.90;;;-141.84;49.00;23335.47;4907875;29;20333;-65
2023/07/10 07:33:30;;;;;;;8.80;8.00;;;26.80;99.90;;;-141.84;48.67;23302.94;4907985;28;20243;-65
2023/07/10 07:36:01;;;;;;;8.85;8.05;;;26.80;99.90;;;-141.84;49.53;23323.28;4907414;29;20682;-66
2023/07/10 07:38:29;;;;;;;7.90;7.22;;;26.90;99.90;;;-141.84;48.46;23331.41;4901113;29;20742;-66
2023/07/10 07:40:59;;;;;;;7.55;6.93;;;26.90;99.90;;;-141.84;48.78;23309.03;4907722;29;20691;-64
2023/07/10 07:43:28;;;;;;;10.25;7.35;;;27.00;99.90;;;-141.84;49.29;23341.56;4907972;29;20320;-66
2023/07/10 07:45:57;;;;;;;7.43;6.72;;;27.10;99.90;;;-141.84;49.43;23329.38;4908056;29;20254;-65
2023/07/10 07:48:26;;;;;;;10.23;7.70;;;27.10;99.90;;;-141.84;49.64;23449.38;4899925;29;20236;-67
2023/07/10 07:51:03;;;;;;;10.18;7.75;;;27.30;99.90;;;-141.84;47.97;23481.94;4907863;29;20678;-65
2023/07/10 07:53:35;;;;;;;9.02;8.13;;;27.30;99.90;;;-141.84;48.20;23463.63;4907798;29;20297;-64
2023/07/10 07:56:03;;;;;;;8.52;7.72;;;27.30;99.90;;;-141.84;47.81;23467.69;4907254;29;20595;-66
2023/07/10 07:58:32;;;;;;;8.63;7.82;;;27.40;99.90;;;-141.84;47.69;23449.38;4897625;29;20306;-66
2023/07/10 08:01:00;;;;;;;11.43;8.75;;;27.40;99.90;;;-141.84;47.40;23526.69;4889654;29;20730;-65
2023/07/10 08:03:30;;;;;;;9.02;7.72;;;27.40;99.90;;;-141.84;48.11;23475.84;4907612;29;20234;-65
2023/07/10 08:06:00;;;;;;;8.82;8.02;;;27.40;99.90;;;-141.84;48.86;23498.22;4890633;29;20297;-65
2023/07/10 08:08:28;;;;;;;9.18;8.10;;;27.40;99.90;;;-141.84;48.36;23542.97;4881262;29;20294;-64
2023/07/10 08:10:56;;;;;;;9.90;8.38;;;27.50;99.90;;;-141.84;46.76;23630.44;4894795;29;20261;-67
2023/07/10 08:13:24;;;;;;;12.27;8.30;;;27.80;99.90;;;-141.84;47.75;23630.44;4899597;29;20222;-64
2023/07/10 08:15:53;;;;;;;12.30;8.70;;;27.80;99.90;;;-141.84;48.05;23650.78;4898587;28;20298;-64
2023/07/10 08:18:22;;;;;;;9.30;8.30;;;27.90;99.90;;;-141.84;47.93;23709.78;4881642;29;20231;-66
2023/07/10 08:20:50;;;;;;;10.25;8.93;;;28.00;99.90;;;-141.84;47.29;23791.16;4888740;29;20211;-67
2023/07/10 08:23:20;;;;;;;12.15;8.30;;;28.10;99.90;;;-141.84;47.89;23750.47;4888409;29;20528;-67
2023/07/10 08:25:48;;;;;;;10.15;9.15;;;28.10;99.90;;;-141.84;48.40;23722.00;4887976;29;20345;-65
2023/07/10 08:28:16;;;;;;;11.45;9.02;;;28.10;99.90;;;-141.84;47.87;23791.16;4888751;29;20365;-66
2023/07/10 08:30:44;;;;;;;9.98;9.07;;;28.10;99.90;;;-141.84;47.93;23801.34;4881713;29;20272;-64
2023/07/10 08:33:13;;;;;;;10.60;9.27;;;28.20;99.90;;;-141.84;46.62;23750.47;4887859;29;20297;-65
2023/07/10 08:35:41;;;;;;;9.60;8.60;;;28.10;99.90;;;-141.84;45.75;23679.28;4888232;29;20238;-65
2023/07/10 08:38:09;;;;;;;10.05;8.73;;;28.00;99.90;;;-141.84;45.43;23699.63;4887870;29;20230;-65
2023/07/10 08:40:43;;;;;;;16.25;8.82;;;28.00;99.90;;;-141.84;45.80;23691.47;4880621;29;20227;-65
2023/07/10 08:43:26;;;;;;;10.60;9.05;;;28.00;99.90;;;-141.84;45.02;23724.03;4887970;29;20242;-65
2023/07/10 08:46:05;;;;;;;9.18;8.38;;;28.00;99.90;;;-141.84;44.78;23701.66;4888420;29;20310;-65
2023/07/10 08:48:38;;;;;;;10.93;9.90;;;27.90;99.90;;;-141.84;45.19;23663.00;4880033;29;20245;-66
2023/07/10 08:51:23;;;;;;;9.85;8.73;;;27.90;99.90;;;-141.84;45.53;23665.03;4887915;29;20214;-65
2023/07/10 08:54:01;;;;;;;11.95;9.80;;;27.90;99.90;;;-141.84;45.29;23811.50;4888669;29;20562;-64
2023/07/10 08:56:37;;;;;;;11.00;9.55;;;28.10;99.90;;;-141.84;45.56;23776.91;4898861;28;20240;-64
2023/07/10 08:59:41;;;;;;;10.38;9.40;;;28.20;99.90;;;-141.84;45.19;23762.69;4906201;28;20229;-65
2023/07/10 09:02:25;;;;;;;12.57;9.60;;;28.10;99.90;;;-141.84;45.60;23732.16;4915268;28;20225;-65
2023/07/10 09:04:54;;;;;;;10.70;9.60;;;28.20;99.90;;;-141.84;44.69;23868.47;4916350;28;20320;-66
2023/07/10 09:07:23;;;;;;;11.35;9.80;;;28.40;99.90;;;-141.84;45.51;23797.25;4907035;29;20230;-65
2023/07/10 09:09:59;;;;;;;9.93;9.07;;;28.40;99.90;;;-141.84;45.05;23781.00;4906377;29;20353;-67
2023/07/10 09:12:39;;;;;;;12.57;10.20;;;28.30;99.90;;;-141.84;44.61;23835.91;4917264;28;20501;-65
2023/07/10 09:15:14;;;;;;;9.90;9.10;;;28.40;99.90;;;-141.84;45.18;23799.28;4906016;28;20435;-66
2023/07/10 09:17:58;;;;;;;10.73;9.63;;;28.50;99.90;;;-141.84;43.88;23844.06;4907302;29;20296;-65
2023/07/10 09:20:26;;;;;;;10.15;9.25;;;28.40;99.90;;;-141.84;44.39;23825.75;4898844;29;20240;-66
2023/07/10 09:23:00;;;;;;;11.50;9.40;;;28.40;99.90;;;-141.84;43.97;23882.72;4907028;29;20237;-66
2023/07/10 09:25:29;;;;;;;12.88;9.20;;;28.40;99.90;;;-141.84;44.59;23888.81;4906616;29;20230;-68
2023/07/10 09:27:59;;;;;;;10.30;9.38;;;28.50;99.90;;;-141.84;43.84;23953.91;4910618;28;20240;-65
2023/07/10 09:30:43;;;;;;;9.88;8.98;;;28.60;99.90;;;-141.84;43.18;23927.47;4902863;29;20237;-67
2023/07/10 09:33:11;;;;;;;9.00;8.30;;;28.60;99.90;;;-141.84;44.16;23947.81;4910982;29;20248;-66
2023/07/10 09:35:44;;;;;;;9.60;8.70;;;28.60;99.90;;;-141.84;44.42;24002.75;4910854;29;20234;-66
2023/07/10 09:38:14;;;;;;;10.68;9.32;;;28.70;99.90;;;-141.84;43.04;24002.75;4910747;29;20237;-65
2023/07/10 09:40:45;;;;;;;10.15;9.13;;;28.80;99.90;;;-141.84;43.41;23949.84;4902513;28;20338;-65
2023/07/10 09:43:19;;;;;;;10.70;8.90;;;28.70;99.90;;;-141.84;43.06;24043.44;4910557;28;20276;-66
2023/07/10 09:45:51;;;;;;;9.68;8.77;;;28.80;99.90;;;-141.84;43.26;24059.72;4910015;29;20253;-66
2023/07/10 09:48:27;;;;;;;9.52;8.63;;;28.90;99.90;;;-141.84;42.45;24183.81;4910028;29;20225;-66
2023/07/10 09:50:56;;;;;;;10.30;8.60;;;29.10;99.90;;;-141.84;42.62;24173.66;4893958;29;20281;-65
2023/07/10 09:53:32;;;;;;;10.90;8.32;;;29.20;99.90;;;-141.84;42.61;24206.22;4909973;28;20234;-66
2023/07/10 09:56:00;;;;;;;10.38;8.60;;;29.30;99.90;;;-141.84;42.92;24230.63;4909521;29;20269;-65
2023/07/10 09:58:30;;;;;;;9.93;8.98;;;29.30;99.90;;;-141.84;42.94;24153.31;4901856;29;20230;-65
2023/07/10 10:01:05;;;;;;;9.30;8.40;;;29.30;99.90;;;-141.84;43.14;24118.72;4910303;28;20329;-65
2023/07/10 10:03:41;;;;;;;10.50;8.70;;;29.20;99.90;;;-141.84;43.73;24120.75;4928216;28;20267;-65
2023/07/10 10:06:22;;;;;;;11.40;8.95;;;29.10;99.90;;;-141.84;44.48;23955.94;4909658;29;20246;-65
2023/07/10 10:08:51;;;;;;;9.95;9.05;;;28.90;99.90;;;-141.84;44.07;24008.84;4910282;29;20294;-64
2023/07/10 10:11:32;;;;;;;9.15;8.43;;;28.90;99.90;;;-141.84;44.28;23958.00;4918454;28;20324;-65
2023/07/10 10:14:11;;;;;;;8.77;7.95;;;28.80;99.90;;;-141.84;44.62;23966.13;4915883;28;20281;-64
2023/07/10 10:16:50;;;;;;;8.90;8.00;;;28.80;99.90;;;-141.84;43.97;24039.38;4901938;28;20438;-66
2023/07/10 10:19:26;;;;;;;9.48;8.27;;;29.00;99.90;;;-141.84;44.47;24057.69;4909919;28;20320;-65
2023/07/10 10:21:54;;;;;;;8.52;7.35;;;28.90;99.90;;;-141.84;44.91;24035.31;4909661;29;20245;-65
2023/07/10 10:24:26;;;;;;;8.88;7.90;;;29.00;99.90;;;-141.84;44.81;23990.53;4902173;29;20643;-65